Time;durP1;ratioP1;P1;durP2;ratioP2;P2;SDS_P1;SDS_P2;PMS_P1;PMS_P2;Temp;Humidity;BMP_temperature;BMP_pressure;BME280_temperature;BME280_humidity;BME280_pressure;Samples;Min_cycle;Max_cycle;Signal;HPM_P1;HPM_P2
2024/04/04 00:00:45;;;;;;;0.77;0.77;;;;;;;;;;5070772;28;20032;-78
2024/04/04 00:03:11;;;;;;;2.73;1.63;;;8.50;99.90;;;;;;5081633;28;20024;-78
2024/04/04 00:05:37;;;;;;;3.20;1.60;;;;;;;;;;5070516;28;20070;-79
2024/04/04 00:08:04;;;;;;;4.15;0.95;;;;;;;;;;5070822;28;20033;-79
2024/04/04 00:10:30;;;;;;;3.38;0.90;;;;;;;;;;5069169;28;20211;-79
2024/04/04 00:12:57;;;;;;;5.47;2.35;;;;;;;;;;5070928;28;20548;-79
2024/04/04 00:15:23;;;;;;;;;;;8.40;99.90;;;;;;5071208;28;20024;-78
2024/04/04 00:17:49;;;;;;;2.00;1.10;;;;;;;;;;5069903;28;20272;-78
2024/04/04 00:20:15;;;;;;;2.67;1.30;;;;;;;;;;5069474;28;20382;-79
2024/04/04 00:22:44;;;;;;;9.52;1.10;;;8.60;99.90;;;;;;5070909;28;20017;-79
2024/04/04 00:25:10;;;;;;;2.05;1.13;;;;;;;;;;5070594;28;20086;-79
2024/04/04 00:27:36;;;;;;;1.35;1.02;;;;;;;;;;5070970;28;20384;-79
2024/04/04 00:30:04;;;;;;;1.98;0.95;;;8.60;99.90;;;;;;5070215;28;20112;-79
2024/04/04 00:32:30;;;;;;;3.45;0.80;;;;;;;;;;5071780;28;20029;-78
2024/04/04 00:34:56;;;;;;;5.85;0.95;;;;;;;;;;5070311;28;20033;-79
2024/04/04 00:37:22;;;;;;;3.13;1.10;;;;;;;;;;5071252;28;20024;-79
2024/04/04 00:39:48;;;;;;;1.08;0.95;;;;;;;;;;5068121;28;20032;-79
2024/04/04 00:42:14;;;;;;;1.58;1.30;;;;;;;;;;5069860;28;20028;-78
2024/04/04 00:44:40;;;;;;;1.38;1.02;;;;;;;;;;5070034;28;20053;-78
2024/04/04 00:47:06;;;;;;;3.90;1.00;;;;;;;;;;5070467;28;20658;-79
2024/04/04 00:49:33;;;;;;;4.65;1.30;;;;;;;;;;5069753;28;20085;-78
2024/04/04 00:51:59;;;;;;;1.25;1.10;;;8.50;99.90;;;;;;5070092;28;20513;-76
2024/04/04 00:54:25;;;;;;;4.43;1.17;;;;;;;;;;5069772;28;20063;-76
2024/04/04 00:56:52;;;;;;;2.25;1.08;;;8.60;99.90;;;;;;5070143;28;20057;-76
2024/04/04 00:59:18;;;;;;;2.70;1.73;;;;;;;;;;5069486;28;20092;-77
2024/04/04 01:01:44;;;;;;;2.35;1.52;;;;;;;;;;5070522;28;20102;-76
2024/04/04 01:04:11;;;;;;;2.25;1.40;;;8.60;99.90;;;;;;5070129;28;20029;-76
2024/04/04 01:06:38;;;;;;;4.90;1.70;;;8.50;99.90;;;;;;5070147;28;20013;-76
2024/04/04 01:09:05;;;;;;;6.22;2.08;;;;;;;;;;5070091;28;20029;-76
2024/04/04 01:11:31;;;;;;;2.63;1.45;;;;;;;;;;5069566;28;20039;-76
2024/04/04 01:13:57;;;;;;;4.28;1.60;;;;;;;;;;5069719;28;20103;-77
2024/04/04 01:16:23;;;;;;;3.22;1.45;;;;;;;;;;5069622;28;20024;-76
2024/04/04 01:18:49;;;;;;;8.85;2.15;;;;;;;;;;5068616;28;20036;-76
2024/04/04 01:21:15;;;;;;;4.97;2.03;;;;;;;;;;5069771;28;20399;-76
2024/04/04 01:23:41;;;;;;;1.63;1.42;;;8.70;99.90;;;;;;5069483;28;20035;-76
2024/04/04 01:26:07;;;;;;;6.82;1.80;;;;;;;;;;5062615;28;20467;-76
2024/04/04 01:28:34;;;;;;;7.53;1.73;;;7.50;99.90;;;;;;5069255;28;20494;-76
2024/04/04 01:31:00;;;;;;;18.83;2.35;;;;;;;;;;5068289;28;20067;-76
2024/04/04 01:33:26;;;;;;;1.33;1.23;;;;;;;;;;5069472;28;20099;-76
2024/04/04 01:35:52;;;;;;;3.22;1.55;;;;;;;;;;5065843;28;20021;-76
2024/04/04 01:38:18;;;;;;;2.63;1.88;;;;;;;;;;5074519;28;20414;-77
2024/04/04 01:40:44;;;;;;;2.03;1.30;;;;;;;;;;5069573;28;20023;-76
2024/04/04 01:43:10;;;;;;;4.25;1.40;;;;;;;;;;5069515;28;20027;-76
2024/04/04 01:45:36;;;;;;;4.30;1.48;;;;;;;;;;5069162;28;20039;-76
2024/04/04 01:48:02;;;;;;;4.20;1.60;;;;;;;;;;5068964;28;20025;-76
2024/04/04 01:50:28;;;;;;;2.70;1.58;;;;;;;;;;5069432;28;20417;-76
2024/04/04 01:52:54;;;;;;;1.30;1.23;;;;;;;;;;5067632;28;20119;-76
2024/04/04 01:55:20;;;;;;;4.22;1.40;;;;;;;;;;5067204;28;20038;-76
2024/04/04 01:57:46;;;;;;;4.20;1.42;;;;;;;;;;5068614;28;20021;-76
2024/04/04 02:00:12;;;;;;;5.38;1.55;;;8.70;99.90;;;;;;5068596;28;20040;-76
2024/04/04 02:02:38;;;;;;;2.72;0.98;;;;;;;;;;5069366;28;20086;-77
2024/04/04 02:05:04;;;;;;;5.38;1.25;;;8.80;99.90;;;;;;5068824;28;20020;-76
2024/04/04 02:07:30;;;;;;;1.45;0.80;;;;;;;;;;5068621;28;20036;-76
2024/04/04 02:09:56;;;;;;;1.23;0.90;;;;;;;;;;5070476;28;20089;-76
2024/04/04 02:12:22;;;;;;;7.38;1.75;;;;;;;;;;5069009;28;20475;-76
2024/04/04 02:14:48;;;;;;;2.33;0.93;;;;;;;;;;5068515;28;20107;-76
2024/04/04 02:17:14;;;;;;;2.15;1.00;;;;;;;;;;5068764;28;20025;-77
2024/04/04 02:19:40;;;;;;;2.05;1.90;;;;;;;;;;5068159;28;20074;-76
2024/04/04 02:22:06;;;;;;;5.60;2.22;;;;;;;;;;5068756;28;20039;-76
2024/04/04 02:24:32;;;;;;;2.60;1.00;;;;;;;;;;5068578;28;20052;-76
2024/04/04 02:26:58;;;;;;;1.20;1.10;;;;;;;;;;5068507;28;20034;-76
2024/04/04 02:29:24;;;;;;;4.13;1.15;;;;;;;;;;5068358;28;20032;-76
2024/04/04 02:31:50;;;;;;;3.33;1.48;;;;;;;;;;5073055;28;20398;-76
2024/04/04 02:34:17;;;;;;;7.90;1.17;;;;;;;;;;5067871;28;20098;-76
2024/04/04 02:36:43;;;;;;;7.60;1.77;;;;;;;;;;5068547;28;20032;-76
2024/04/04 02:39:15;;;;;;;4.47;1.33;;;;;;;;;;5068272;28;20074;-76
2024/04/04 02:41:41;;;;;;;2.55;1.02;;;;;;;;;;5068380;28;20466;-76
2024/04/04 02:44:07;;;;;;;0.80;0.80;;;;;;;;;;5067928;28;20034;-76
2024/04/04 02:46:33;;;;;;;1.35;0.98;;;;;;;;;;5068408;28;20036;-76
2024/04/04 02:48:59;;;;;;;2.50;1.42;;;;;;;;;;5068761;28;20024;-76
2024/04/04 02:51:25;;;;;;;2.70;1.30;;;;;;;;;;5068028;28;20028;-76
2024/04/04 02:53:51;;;;;;;1.83;1.08;;;;;;;;;;5055808;28;20078;-76
2024/04/04 02:56:17;;;;;;;3.88;3.30;;;;;;;;;;5068155;28;20402;-76
2024/04/04 02:58:43;;;;;;;2.60;1.42;;;;;;;;;;5068210;28;20056;-76
2024/04/04 03:01:09;;;;;;;1.80;1.33;;;;;;;;;;5068118;28;20127;-76
2024/04/04 03:03:35;;;;;;;1.92;1.08;;;;;;;;;;5068515;28;20092;-76
2024/04/04 03:06:01;;;;;;;7.18;1.35;;;;;;;;;;5072272;28;20025;-76
2024/04/04 03:08:27;;;;;;;2.40;1.08;;;;;;;;;;5072523;28;20444;-76
2024/04/04 03:10:53;;;;;;;1.85;0.80;;;;;;;;;;5071830;28;20032;-76
2024/04/04 03:13:19;;;;;;;11.48;1.08;;;;;;;;;;5059596;28;20046;-76
2024/04/04 03:15:58;;;;;;;0.70;0.63;;;7.90;99.90;;;;;;5072613;28;20099;-76
2024/04/04 03:18:24;;;;;;;5.22;1.65;;;;;;;;;;5071650;28;21038;-76
2024/04/04 03:20:51;;;;;;;4.88;1.10;;;;;;;;;;5070953;28;20443;-76
2024/04/04 03:23:17;;;;;;;4.00;1.65;;;;;;;;;;5072103;28;20051;-76
2024/04/04 03:25:43;;;;;;;1.30;0.85;;;;;;;;;;5071824;28;20032;-76
2024/04/04 03:28:09;;;;;;;4.93;1.10;;;;;;;;;;5071675;28;20027;-76
2024/04/04 03:30:35;;;;;;;1.85;1.55;;;;;;;;;;5071819;28;20032;-76
2024/04/04 03:33:01;;;;;;;5.03;0.82;;;;;;;;;;5072070;28;20487;-76
2024/04/04 03:35:27;;;;;;;2.90;1.33;;;;;;;;;;5071847;28;20035;-76
2024/04/04 03:37:53;;;;;;;1.98;1.35;;;;;;;;;;5082301;28;20032;-76
2024/04/04 03:40:19;;;;;;;2.22;2.00;;;;;;;;;;5071245;28;20023;-76
2024/04/04 03:42:46;;;;;;;2.05;1.08;;;;;;;;;;5071682;28;20023;-76
2024/04/04 03:45:12;;;;;;;1.30;0.70;;;;;;;;;;5071638;28;20035;-76
2024/04/04 03:47:38;;;;;;;2.03;1.02;;;;;;;;;;5071300;28;20017;-76
2024/04/04 03:50:04;;;;;;;6.97;0.98;;;9.20;99.90;;;;;;5071232;28;20158;-76
2024/04/04 03:52:31;;;;;;;9.02;1.17;;;;;;;;;;5071482;28;20040;-77
2024/04/04 03:54:57;;;;;;;4.78;0.93;;;;;;;;;;5071302;28;20437;-76
2024/04/04 03:57:23;;;;;;;4.80;1.17;;;;;;;;;;5071477;28;20505;-76
2024/04/04 03:59:50;;;;;;;0.50;0.50;;;;;;;;;;5071013;28;20060;-76
2024/04/04 04:02:16;;;;;;;3.67;0.77;;;;;;;;;;5070837;28;20017;-76
2024/04/04 04:04:41;;;;;;;1.35;1.25;;;7.30;99.90;;;;;;5071074;28;20197;-76
2024/04/04 04:07:07;;;;;;;3.15;0.75;;;;;;;;;;5071463;28;20217;-76
2024/04/04 04:09:33;;;;;;;3.20;1.05;;;7.80;99.90;;;;;;5070828;28;20036;-76
2024/04/04 04:11:59;;;;;;;3.92;1.30;;;;;;;;;;5070563;28;20115;-76
2024/04/04 04:14:25;;;;;;;0.93;0.60;;;;;;;;;;5073803;28;20035;-76
2024/04/04 04:16:51;;;;;;;0.80;0.80;;;;;;;;;;5070480;28;20021;-76
2024/04/04 04:19:17;;;;;;;1.13;0.77;;;;;;;;;;5070619;28;20463;-76
2024/04/04 04:21:43;;;;;;;6.10;1.27;;;;;;;;;;5070688;28;20012;-76
2024/04/04 04:24:09;;;;;;;0.50;0.50;;;;;;;;;;5070808;28;20031;-76
2024/04/04 04:26:35;;;;;;;1.67;0.73;;;;;;;;;;5070799;28;20028;-76
2024/04/04 04:29:01;;;;;;;1.60;1.33;;;;;;;;;;5070526;28;20039;-76
2024/04/04 04:31:32;;;;;;;1.67;1.10;;;7.80;99.90;;;;;;5070575;28;20495;-76
2024/04/04 04:34:00;;;;;;;1.27;0.82;;;7.80;99.90;;;;;;5070371;28;20037;-76
2024/04/04 04:36:27;;;;;;;;;;;7.80;99.90;;;;;;5071000;28;20363;-76
2024/04/04 04:38:53;;;;;;;0.90;0.65;;;;;;;;;;5070630;28;19908;-76
2024/04/04 04:41:19;;;;;;;7.05;2.35;;;7.80;99.90;;;;;;5071612;28;20028;-76
2024/04/04 04:43:46;;;;;;;6.50;1.00;;;;;;;;;;5070499;28;20059;-76
2024/04/04 04:46:16;;;;;;;3.58;0.70;;;7.50;99.90;;;;;;5070314;28;20028;-76
2024/04/04 04:48:42;;;;;;;5.68;1.17;;;;;;;;;;5069527;28;20029;-76
2024/04/04 04:51:08;;;;;;;4.50;1.20;;;;;;;;;;5070269;28;20039;-76
2024/04/04 04:53:34;;;;;;;1.05;0.80;;;;;;;;;;5070231;28;20156;-76
2024/04/04 04:56:00;;;;;;;3.15;1.33;;;;;;;;;;5070064;28;20020;-78
2024/04/04 04:58:26;;;;;;;1.10;0.85;;;;;;;;;;5069915;28;20100;-78
2024/04/04 05:00:52;;;;;;;3.75;0.98;;;;;;;;;;5070026;28;20016;-78
2024/04/04 05:03:20;;;;;;;0.98;0.88;;;8.00;99.90;;;;;;5069871;28;20070;-78
2024/04/04 05:05:46;;;;;;;1.10;0.77;;;;;;;;;;5069834;28;20103;-78
2024/04/04 05:08:12;;;;;;;2.83;1.20;;;;;;;;;;5070526;28;20063;-78
2024/04/04 05:10:39;;;;;;;2.45;1.30;;;;;;;;;;5069869;28;20032;-78
2024/04/04 05:13:05;;;;;;;6.72;1.80;;;;;;;;;;5069584;28;20413;-78
2024/04/04 05:15:31;;;;;;;5.25;1.85;;;;;;;;;;5069045;28;20589;-78
2024/04/04 05:17:57;;;;;;;4.10;1.15;;;;;;;;;;5070167;28;20035;-78
2024/04/04 05:20:23;;;;;;;9.27;1.25;;;;;;;;;;5069068;28;20024;-78
2024/04/04 05:22:49;;;;;;;1.65;1.15;;;;;;;;;;5068891;28;20403;-78
2024/04/04 05:25:15;;;;;;;1.45;1.15;;;;;;;;;;5067087;28;20025;-78
2024/04/04 05:27:41;;;;;;;2.88;1.17;;;;;;;;;;5065688;28;20040;-78
2024/04/04 05:30:14;;;;;;;3.03;1.70;;;7.70;99.90;;;;;;5067881;28;20048;-78
2024/04/04 05:32:43;;;;;;;1.20;0.95;;;7.70;99.90;;;;;;5067761;28;20037;-77
2024/04/04 05:35:09;;;;;;;1.80;1.00;;;;;;;;;;5068380;28;20025;-77
2024/04/04 05:37:38;;;;;;;4.25;0.70;;;8.10;99.90;;;;;;5067639;28;20105;-78
2024/04/04 05:40:06;;;;;;;1.35;1.23;;;8.20;99.90;;;;;;5065972;28;20024;-78
2024/04/04 05:42:33;;;;;;;3.33;1.27;;;;;;;;;;5067868;28;20544;-78
2024/04/04 05:44:59;;;;;;;7.38;2.33;;;;;;;;;;5069655;28;20032;-81
2024/04/04 05:47:25;;;;;;;2.42;0.98;;;;;;;;;;5080731;28;20090;-78
2024/04/04 05:49:51;;;;;;;3.15;1.35;;;;;;;;;;5067096;28;20024;-77
2024/04/04 05:52:17;;;;;;;4.65;1.10;;;;;;;;;;5067302;28;20041;-78
2024/04/04 05:54:48;;;;;;;3.95;1.80;;;8.90;99.50;;;;;;5067664;28;20052;-78
2024/04/04 05:57:14;;;;;;;1.55;0.88;;;;;;;;;;5067131;28;20103;-78
2024/04/04 05:59:40;;;;;;;1.23;0.80;;;;;;;;;;5067164;28;20044;-78
2024/04/04 06:02:06;;;;;;;0.80;0.80;;;;;;;;;;5065669;28;20028;-78
2024/04/04 06:04:32;;;;;;;1.10;1.00;;;;;;;;;;5067127;28;20399;-78
2024/04/04 06:06:58;;;;;;;3.08;0.98;;;;;;;;;;5067407;28;20079;-78
2024/04/04 06:09:24;;;;;;;2.95;1.30;;;;;;;;;;5067400;28;20044;-78
2024/04/04 06:11:50;;;;;;;1.58;1.35;;;;;;;;;;5066989;28;20156;-78
2024/04/04 06:14:16;;;;;;;2.35;1.27;;;;;;;;;;5065695;28;20145;-78
2024/04/04 06:16:42;;;;;;;4.97;1.45;;;;;;;;;;5074275;28;20533;-78
2024/04/04 06:19:08;;;;;;;8.00;2.58;;;;;;;;;;5066880;28;20286;-78
2024/04/04 06:21:34;;;;;;;2.72;1.83;;;;;;;;;;5067266;28;20023;-78
2024/04/04 06:24:00;;;;;;;5.35;2.22;;;;;;;;;;5067063;28;20107;-78
2024/04/04 06:26:28;;;;;;;2.20;2.00;;;;;;;;;;5060441;28;20029;-80
2024/04/04 06:28:55;;;;;;;7.38;2.05;;;15.00;79.20;;;;;;5065834;28;20513;-79
2024/04/04 06:31:21;;;;;;;2.37;1.60;;;;;;;;;;5073930;28;20048;-80
2024/04/04 06:33:47;;;;;;;3.10;1.90;;;;;;;;;;5068283;28;20769;-80
2024/04/04 06:36:13;;;;;;;11.70;2.25;;;;;;;;;;5070980;28;20105;-80
2024/04/04 06:38:39;;;;;;;3.00;1.73;;;;;;;;;;5070233;28;20261;-79
2024/04/04 06:41:06;;;;;;;2.30;1.45;;;;;;;;;;5051011;28;20023;-80
2024/04/04 06:43:32;;;;;;;3.38;1.85;;;;;;;;;;5067196;28;20409;-80
2024/04/04 06:45:58;;;;;;;3.72;1.45;;;;;;;;;;5069130;28;20031;-80
2024/04/04 06:48:24;;;;;;;4.28;1.60;;;;;;;;;;5069430;28;20412;-80
2024/04/04 06:50:50;;;;;;;2.78;1.45;;;;;;;;;;5072769;28;20448;-79
2024/04/04 06:53:16;;;;;;;7.95;2.85;;;;;;;;;;5062253;28;20051;-79
2024/04/04 06:55:42;;;;;;;2.90;1.65;;;;;;;;;;5065599;28;20024;-79
2024/04/04 06:58:08;;;;;;;1.50;1.35;;;;;;;;;;5070004;28;20027;-78
2024/04/04 07:00:35;;;;;;;3.80;1.45;;;;;;;;;;5072365;28;20032;-78
2024/04/04 07:03:01;;;;;;;3.30;1.30;;;;;;;;;;5074285;28;20074;-78
2024/04/04 07:05:28;;;;;;;2.78;1.42;;;;;;;;;;5062552;28;20533;-78
2024/04/04 07:07:54;;;;;;;4.28;2.65;;;;;;;;;;5063704;28;20032;-80
2024/04/04 07:10:20;;;;;;;5.90;2.60;;;;;;;;;;5060737;28;20802;-78
2024/04/04 07:12:46;;;;;;;4.03;1.90;;;;;;;;;;5067104;28;20032;-78
2024/04/04 07:15:13;;;;;;;7.07;1.98;;;;;;;;;;5064236;28;20035;-78
2024/04/04 07:17:38;;;;;;;2.28;1.05;;;;;;;;;;5061168;28;20108;-79
2024/04/04 07:20:05;;;;;;;1.70;1.27;;;;;;;;;;5064347;28;20147;-80
2024/04/04 07:22:31;;;;;;;4.78;0.90;;;;;;;;;;5061087;28;20401;-80
2024/04/04 07:24:57;;;;;;;6.43;1.35;;;;;;;;;;5066274;28;20047;-80
2024/04/04 07:27:23;;;;;;;2.97;1.15;;;;;;;;;;5059038;28;20494;-80
2024/04/04 07:29:49;;;;;;;3.25;1.35;;;;;;;;;;5063007;28;20078;-80
2024/04/04 07:32:15;;;;;;;0.85;0.80;;;;;;;;;;5061330;28;20060;-79
2024/04/04 07:34:41;;;;;;;2.17;1.00;;;;;;;;;;5068383;28;20579;-81
2024/04/04 07:37:07;;;;;;;4.18;1.00;;;;;;;;;;5060214;28;20100;-79
2024/04/04 07:39:33;;;;;;;2.25;0.60;;;;;;;;;;5064373;28;20040;-80
2024/04/04 07:42:03;;;;;;;2.50;0.70;;;23.00;47.60;;;;;;5068980;28;20296;-79
2024/04/04 07:44:29;;;;;;;2.33;1.13;;;;;;;;;;5067946;28;20070;-79
2024/04/04 07:46:55;;;;;;;2.55;1.38;;;;;;;;;;5058106;28;20453;-79
2024/04/04 07:49:21;;;;;;;5.13;1.30;;;;;;;;;;5063186;28;20028;-79
2024/04/04 07:51:48;;;;;;;3.08;1.00;;;25.20;44.90;;;;;;5067177;28;20029;-80
2024/04/04 07:54:14;;;;;;;2.58;0.93;;;;;;;;;;5071883;28;20035;-79
2024/04/04 07:56:40;;;;;;;1.57;0.90;;;;;;;;;;5069427;28;20043;-79
2024/04/04 07:59:07;;;;;;;2.17;1.83;;;;;;;;;;5064957;28;20059;-80
2024/04/04 08:01:33;;;;;;;4.57;1.38;;;;;;;;;;5072144;28;20070;-80
2024/04/04 08:03:59;;;;;;;1.85;0.98;;;;;;;;;;5067429;28;20032;-79
2024/04/04 08:06:25;;;;;;;1.08;0.80;;;;;;;;;;5064148;28;20036;-79
2024/04/04 08:08:51;;;;;;;2.20;0.90;;;32.70;48.50;;;;;;5068601;28;20074;-79
2024/04/04 08:11:16;;;;;;;4.75;1.35;;;35.60;38.20;;;;;;5076724;28;20048;-79
2024/04/04 08:13:45;;;;;;;1.35;0.65;;;36.70;43.40;;;;;;5070097;28;20032;-79
2024/04/04 08:16:11;;;;;;;1.08;0.70;;;38.00;32.20;;;;;;5069497;28;20406;-80
2024/04/04 08:18:37;;;;;;;2.20;1.03;;;39.10;40.60;;;;;;5073034;28;20027;-79
2024/04/04 08:21:03;;;;;;;2.38;0.98;;;39.80;39.70;;;;;;5077273;28;20541;-80
2024/04/04 08:23:30;;;;;;;0.90;0.50;;;39.50;38.70;;;;;;5067440;28;20131;-79
2024/04/04 08:25:58;;;;;;;4.10;1.15;;;40.30;27.60;;;;;;5067417;28;20407;-79
2024/04/04 08:28:24;;;;;;;2.00;0.47;;;;;;;;;;5081509;28;20051;-79
2024/04/04 08:31:00;;;;;;;3.53;1.30;;;35.50;27.90;;;;;;5081793;28;20116;-79
2024/04/04 08:33:26;;;;;;;3.80;0.50;;;;;;;;;;5067666;28;20055;-80
2024/04/04 08:35:53;;;;;;;1.60;0.75;;;33.80;28.40;;;;;;5064041;28;20107;-79
2024/04/04 08:38:19;;;;;;;2.30;0.80;;;;;;;;;;5067851;28;20397;-78
2024/04/04 08:40:45;;;;;;;2.65;1.00;;;37.60;30.00;;;;;;5069847;28;20032;-78
2024/04/04 08:43:15;;;;;;;2.40;0.70;;;36.20;26.60;;;;;;5072114;28;20477;-79
2024/04/04 08:45:48;;;;;;;0.77;0.40;;;;;;;;;;5062740;28;20505;-79
2024/04/04 08:48:19;;;;;;;2.72;0.47;;;32.70;27.60;;;;;;5071084;28;20398;-81
2024/04/04 08:50:46;;;;;;;2.25;0.95;;;31.70;29.10;;;;;;5071311;28;20036;-78
2024/04/04 08:53:27;;;;;;;1.73;1.02;;;32.10;34.60;;;;;;5065492;28;20524;-79
2024/04/04 08:55:54;;;;;;;2.03;0.82;;;33.00;42.60;;;;;;5065874;28;20052;-79
2024/04/04 08:58:21;;;;;;;2.42;0.63;;;34.40;30.30;;;;;;5063031;28;20051;-79
2024/04/04 09:00:47;;;;;;;4.75;1.08;;;36.30;40.20;;;;;;5065464;28;20028;-79
2024/04/04 09:03:13;;;;;;;2.75;0.50;;;38.20;38.80;;;;;;5067732;28;20024;-79
2024/04/04 09:05:52;;;;;;;2.40;0.52;;;40.30;37.40;;;;;;5062104;28;20032;-80
2024/04/04 09:08:18;;;;;;;2.00;0.70;;;42.40;25.50;;;;;;5066344;28;20024;-79
2024/04/04 09:10:45;;;;;;;2.13;0.63;;;;;;;;;;5064409;28;20028;-79
2024/04/04 09:13:12;;;;;;;3.88;0.57;;;43.10;24.00;;;;;;5065671;28;20310;-79
2024/04/04 09:15:39;;;;;;;0.82;0.50;;;43.50;24.10;;;;;;5062444;28;20037;-79
2024/04/04 09:18:09;;;;;;;0.50;0.30;;;42.80;28.80;;;;;;5064746;28;20032;-80
2024/04/04 09:20:39;;;;;;;0.32;0.28;;;44.60;31.90;;;;;;5064102;28;20041;-79
2024/04/04 09:23:06;;;;;;;0.95;0.30;;;44.20;22.90;;;;;;5098351;28;20016;-82
2024/04/04 09:25:33;;;;;;;1.08;0.40;;;;;;;;;;5062448;28;20051;-80
2024/04/04 09:27:59;;;;;;;;;;;45.00;22.80;;;;;;5064027;28;20028;-80
2024/04/04 09:30:25;;;;;;;2.00;0.55;;;;;;;;;;5065118;28;19948;-80
2024/04/04 09:32:52;;;;;;;1.20;0.32;;;;;;;;;;5060140;28;20071;-79
2024/04/04 09:35:22;;;;;;;0.28;0.25;;;43.80;22.40;;;;;;5063508;28;20578;-79
2024/04/04 09:37:50;;;;;;;2.50;0.35;;;43.10;21.80;;;;;;5074046;28;20073;-79
2024/04/04 09:40:17;;;;;;;1.55;0.38;;;42.00;31.20;;;;;;5065758;28;20039;-79
2024/04/04 09:42:45;;;;;;;0.38;0.20;;;42.00;31.50;;;;;;5065434;28;20013;-78
2024/04/04 09:45:11;;;;;;;0.85;0.40;;;43.20;22.40;;;;;;5063613;28;20508;-79
2024/04/04 09:47:50;;;;;;;1.48;0.47;;;42.90;22.10;;;;;;5060529;28;20036;-79
2024/04/04 09:50:18;;;;;;;0.70;0.40;;;42.90;22.00;;;;;;5063973;28;20035;-81
2024/04/04 09:52:44;;;;;;;1.83;0.50;;;;;;;;;;5064367;28;20036;-79
2024/04/04 09:55:15;;;;;;;0.50;0.28;;;43.40;24.30;;;;;;5064505;28;20032;-78
2024/04/04 09:57:42;;;;;;;2.60;0.63;;;44.10;22.00;;;;;;5065522;28;20378;-78
2024/04/04 10:00:28;;;;;;;1.90;0.30;;;43.80;22.40;;;;;;5063835;28;20611;-78
2024/04/04 10:02:58;;;;;;;0.65;0.40;;;45.10;21.60;;;;;;5063617;28;20044;-80
2024/04/04 10:05:34;;;;;;;2.95;0.70;;;46.20;21.60;;;;;;5069733;28;20192;-80
2024/04/04 10:08:13;;;;;;;3.05;0.30;;;46.60;29.80;;;;;;5077499;28;20040;-79
2024/04/04 10:10:40;;;;;;;1.48;0.35;;;46.80;20.60;;;;;;5069095;28;20513;-79
2024/04/04 10:13:07;;;;;;;1.13;0.25;;;46.40;24.50;;;;;;5069229;28;20041;-80
2024/04/04 10:15:51;;;;;;;1.23;0.20;;;47.90;21.30;;;;;;5067520;28;20024;-80
2024/04/04 10:18:21;;;;;;;1.27;0.20;;;;;;;;;;5066173;28;20082;-80
2024/04/04 10:20:59;;;;;;;0.50;0.40;;;48.30;29.10;;;;;;5071266;28;20008;-80
2024/04/04 10:23:25;;;;;;;1.85;0.40;;;48.70;21.80;;;;;;5070662;28;20406;-80
2024/04/04 10:25:51;;;;;;;0.50;0.30;;;;;;;;;;5062271;28;20021;-80
2024/04/04 10:28:20;;;;;;;1.05;0.20;;;;;;;;;;5078575;28;20023;-80
2024/04/04 10:30:47;;;;;;;0.30;0.20;;;47.60;21.50;;;;;;5076010;28;20111;-79
2024/04/04 10:33:15;;;;;;;0.98;0.25;;;;;;;;;;5065891;28;20044;-80
2024/04/04 10:35:41;;;;;;;0.85;0.30;;;;;;;;;;5061219;28;20526;-80
2024/04/04 10:38:07;;;;;;;0.17;0.17;;;;;;;;;;5062213;28;20056;-80
2024/04/04 10:40:32;;;;;;;;;;;47.40;20.30;;;;;;5065041;28;20020;-80
2024/04/04 10:42:58;;;;;;;0.88;0.28;;;47.00;28.70;;;;;;5079205;28;20282;-79
2024/04/04 10:45:24;;;;;;;;;;;46.90;20.80;;;;;;5069002;28;20025;-80
2024/04/04 10:47:55;;;;;;;0.55;0.20;;;46.80;20.70;;;;;;5069111;28;19915;-79
2024/04/04 10:50:21;;;;;;;1.08;0.30;;;;;;;;;;5074699;28;20062;-79
2024/04/04 10:52:47;;;;;;;0.75;0.20;;;47.30;28.90;;;;;;5072709;28;20203;-80
2024/04/04 10:55:12;;;;;;;;;;;47.40;21.20;;;;;;5064631;28;20498;-80
2024/04/04 10:57:39;;;;;;;1.70;0.38;;;47.30;28.50;;;;;;5070361;28;20094;-79
2024/04/04 11:00:14;;;;;;;;;;;47.60;21.00;;;;;;5075166;28;20144;-79
2024/04/04 11:02:49;;;;;;;1.92;0.30;;;46.20;20.50;;;;;;5072012;28;19908;-79
2024/04/04 11:05:21;;;;;;;0.60;0.15;;;44.90;20.70;;;;;;5071210;28;20040;-80
2024/04/04 11:07:48;;;;;;;0.90;0.22;;;;;;;;;;5069398;28;20028;-79
2024/04/04 11:10:15;;;;;;;0.80;0.17;;;43.00;21.00;;;;;;5074561;28;20103;-79
2024/04/04 11:12:43;;;;;;;2.15;0.30;;;41.00;21.50;;;;;;5080069;28;20028;-79
2024/04/04 11:15:12;;;;;;;0.40;0.20;;;;;;;;;;5064107;28;20410;-78
2024/04/04 11:17:41;;;;;;;2.63;0.20;;;34.20;23.10;;;;;;5071705;28;20394;-79
2024/04/04 11:20:14;;;;;;;2.47;0.28;;;35.70;24.30;;;;;;5072543;28;20024;-79
2024/04/04 11:22:40;;;;;;;1.50;0.60;;;36.50;24.10;;;;;;5073706;28;20031;-79
2024/04/04 11:25:07;;;;;;;3.00;0.30;;;35.30;23.80;;;;;;5064801;28;20029;-80
2024/04/04 11:27:33;;;;;;;;;;;34.80;24.30;;;;;;5067682;28;20110;-81
2024/04/04 11:29:59;;;;;;;1.67;0.43;;;;;;;;;;5078646;28;19999;-79
2024/04/04 11:32:26;;;;;;;2.22;0.40;;;;;;;;;;5068538;28;20486;-79
2024/04/04 11:34:52;;;;;;;1.02;0.30;;;;;;;;;;5074955;28;20027;-79
2024/04/04 11:37:24;;;;;;;3.10;0.55;;;;;;;;;;5067101;28;20025;-79
2024/04/04 11:39:50;;;;;;;0.85;0.35;;;;;;;;;;5070093;28;20039;-80
2024/04/04 11:42:17;;;;;;;2.17;0.90;;;;;;;;;;5075984;28;20130;-80
2024/04/04 11:44:43;;;;;;;3.38;0.57;;;31.90;27.90;;;;;;5067002;28;20021;-80
2024/04/04 11:47:10;;;;;;;1.10;0.40;;;;;;;;;;5069312;28;20036;-75
2024/04/04 11:49:36;;;;;;;0.38;0.20;;;;;;;;;;5074844;28;20035;-75
2024/04/04 11:52:02;;;;;;;1.23;0.50;;;;;;;;;;5080834;28;20024;-76
2024/04/04 11:54:28;;;;;;;2.50;1.23;;;;;;;;;;5068534;28;20032;-77
2024/04/04 11:56:54;;;;;;;1.65;0.30;;;;;;;;;;5066970;28;20291;-76
2024/04/04 11:59:20;;;;;;;2.42;0.50;;;;;;;;;;5072386;28;20064;-76
2024/04/04 12:01:46;;;;;;;7.10;0.88;;;;;;;;;;5068788;28;20435;-77
2024/04/04 12:04:12;;;;;;;1.35;0.38;;;;;;;;;;5066814;28;20032;-76
2024/04/04 12:06:38;;;;;;;1.95;0.30;;;;;;;;;;5071881;28;20531;-77
2024/04/04 12:09:09;;;;;;;0.52;0.20;;;;;;;;;;5073867;28;20152;-76
2024/04/04 12:11:38;;;;;;;0.90;0.32;;;42.60;22.30;;;;;;5067642;28;20402;-76
2024/04/04 12:14:05;;;;;;;0.40;0.10;;;;;;;;;;5069306;28;20458;-76
2024/04/04 12:16:32;;;;;;;1.33;0.20;;;;;;;;;;5064681;28;20436;-76
2024/04/04 12:21:42;;;;;;;1.45;0.32;;;39.80;29.30;;;;;;5068500;28;20032;-76
2024/04/04 12:24:08;;;;;;;0.52;0.10;;;;;;;;;;5066335;28;20390;-75
2024/04/04 12:26:34;;;;;;;1.42;0.20;;;;;;;;;;5071594;28;20070;-75
2024/04/04 12:29:00;;;;;;;1.13;0.20;;;35.10;39.20;;;;;;5067505;28;20034;-76
2024/04/04 12:31:27;;;;;;;1.80;0.27;;;;;;;;;;5066317;28;20037;-78
2024/04/04 12:33:53;;;;;;;0.55;0.20;;;33.60;29.90;;;;;;5066528;28;20070;-77
2024/04/04 12:36:18;;;;;;;0.73;0.30;;;33.00;29.40;;;;;;5062218;28;20080;-77
2024/04/04 12:38:44;;;;;;;0.83;0.17;;;;;;;;;;5065795;28;20033;-77
2024/04/04 12:41:10;;;;;;;0.83;0.20;;;31.70;42.90;;;;;;5066408;28;20032;-76
2024/04/04 12:43:36;;;;;;;0.80;0.47;;;;;;;;;;5065217;28;20390;-77
2024/04/04 12:46:04;;;;;;;1.63;0.50;;;31.00;27.40;;;;;;5071446;28;20725;-77
2024/04/04 12:48:33;;;;;;;1.35;0.40;;;31.00;27.50;;;;;;5066223;28;20036;-76
2024/04/04 12:50:59;;;;;;;0.38;0.30;;;;;;;;;;5070119;28;20032;-75
2024/04/04 12:53:26;;;;;;;1.55;0.60;;;30.60;28.20;;;;;;5073352;28;20028;-75
2024/04/04 12:55:52;;;;;;;3.30;0.40;;;;;;;;;;5066328;28;20028;-75
2024/04/04 12:58:18;;;;;;;2.70;0.50;;;;;;;;;;5071441;28;20047;-75
2024/04/04 13:00:44;;;;;;;3.63;0.50;;;;;;;;;;5075146;28;20112;-75
2024/04/04 13:03:11;;;;;;;0.50;0.32;;;;;;;;;;5069418;28;20033;-74
2024/04/04 13:05:37;;;;;;;0.67;0.30;;;27.50;29.80;;;;;;5074851;28;20111;-75
2024/04/04 13:08:04;;;;;;;2.13;0.32;;;27.10;30.00;;;;;;5067404;28;20040;-75
2024/04/04 13:10:30;;;;;;;1.23;0.40;;;;;;;;;;5074935;28;20135;-75
2024/04/04 13:12:56;;;;;;;1.70;0.40;;;;;;;;;;5071615;28;20348;-76
2024/04/04 13:15:22;;;;;;;0.20;0.20;;;;;;;;;;5071464;28;20558;-74
2024/04/04 13:17:48;;;;;;;1.20;0.40;;;;;;;;;;5063817;28;20039;-74
2024/04/04 13:20:15;;;;;;;1.75;0.38;;;25.50;31.70;;;;;;5067996;28;20036;-74
2024/04/04 13:22:41;;;;;;;0.43;0.40;;;;;;;;;;5065960;28;20016;-74
2024/04/04 13:25:09;;;;;;;0.80;0.38;;;;;;;;;;5071554;28;20025;-74
2024/04/04 13:27:36;;;;;;;0.28;0.28;;;;;;;;;;5067376;28;20016;-75
2024/04/04 13:30:02;;;;;;;1.23;0.45;;;;;;;;;;5075728;28;20029;-73
2024/04/04 13:32:28;;;;;;;0.85;0.30;;;;;;;;;;5066635;28;20039;-75
2024/04/04 13:34:54;;;;;;;2.28;0.50;;;25.60;48.70;;;;;;5063466;28;20411;-75
2024/04/04 13:37:20;;;;;;;0.47;0.45;;;;;;;;;;5059573;28;20024;-73
2024/04/04 13:39:48;;;;;;;0.98;0.45;;;;;;;;;;5067777;28;20029;-73
2024/04/04 13:42:14;;;;;;;2.15;0.30;;;;;;;;;;5063857;28;20028;-75
2024/04/04 13:44:40;;;;;;;0.70;0.30;;;26.40;31.90;;;;;;5065626;28;20036;-75
2024/04/04 13:47:06;;;;;;;0.73;0.50;;;26.50;32.80;;;;;;5064507;28;20378;-74
2024/04/04 13:49:32;;;;;;;0.60;0.20;;;;;;;;;;5063298;28;20024;-74
2024/04/04 13:51:59;;;;;;;0.68;0.30;;;;;;;;;;5065761;28;20012;-73
2024/04/04 13:54:25;;;;;;;1.67;0.30;;;;;;;;;;5069850;28;20571;-74
2024/04/04 13:56:52;;;;;;;0.13;0.13;;;26.80;49.70;;;;;;5070321;28;20165;-73
2024/04/04 13:59:18;;;;;;;;;;;26.70;31.70;;;;;;5066334;28;20052;-73
2024/04/04 14:01:44;;;;;;;1.27;0.40;;;;;;;;;;5064088;28;19912;-73
2024/04/04 14:04:10;;;;;;;1.35;0.60;;;;;;;;;;5063199;28;20565;-74
2024/04/04 14:06:36;;;;;;;0.22;0.22;;;;;;;;;;5057416;28;20020;-73